createdAt,value
2023-01-10T00:03:11.692Z,12.8
2023-01-10T00:08:13.765Z,12.5
2023-01-10T00:13:15.914Z,12
2023-01-10T00:18:18.362Z,12.2
2023-01-10T00:23:20.488Z,12.4
2023-01-10T00:28:22.663Z,13
2023-01-10T00:33:24.897Z,12.2
2023-01-10T00:38:27.036Z,12.9
2023-01-10T00:43:29.398Z,12.5
2023-01-10T00:48:33.023Z,13.4
2023-01-10T00:53:35.410Z,12
2023-01-10T00:58:37.611Z,11.9
2023-01-10T01:03:39.701Z,12.9
2023-01-10T01:08:42.234Z,13.1
2023-01-10T01:13:44.660Z,12.4
2023-01-10T01:18:46.812Z,12.1
2023-01-10T01:23:48.869Z,11.2
2023-01-10T01:28:50.984Z,11.7
2023-01-10T01:33:53.230Z,11.9
2023-01-10T01:38:55.507Z,11.1
2023-01-10T01:43:58.213Z,11.6
2023-01-10T01:49:01.293Z,10.9
2023-01-10T01:54:05.399Z,12.3
2023-01-10T01:59:07.615Z,11.8
2023-01-10T02:04:09.992Z,11.4
2023-01-10T02:09:12.533Z,11.4
2023-01-10T02:14:14.716Z,11
2023-01-10T02:19:17.052Z,11.7
2023-01-10T02:24:19.615Z,11.4
2023-01-10T02:29:21.734Z,11.4
2023-01-10T02:34:23.894Z,11.5
2023-01-10T02:39:26.032Z,11.6
2023-01-10T02:44:29.034Z,11.9
2023-01-10T02:49:31.035Z,11.5
2023-01-10T02:54:33.462Z,11.6
2023-01-10T02:59:35.650Z,12.6
2023-01-10T03:04:38.179Z,12.1
2023-01-10T03:09:41.001Z,11.9
2023-01-10T03:14:43.964Z,11.9
2023-01-10T03:19:46.310Z,11
2023-01-10T03:24:48.609Z,11.2
2023-01-10T03:29:51.186Z,11.4
2023-01-10T03:34:53.869Z,10.8
2023-01-10T03:39:56.121Z,10.4
2023-01-10T03:44:58.248Z,10.7
2023-01-10T03:50:00.406Z,11
2023-01-10T03:55:02.644Z,10.8
2023-01-10T04:00:04.725Z,10.4
2023-01-10T04:05:06.741Z,10.3
2023-01-10T04:10:09.096Z,9.9
2023-01-10T04:15:11.202Z,10.1
2023-01-10T04:20:13.196Z,10.4
2023-01-10T04:25:15.346Z,10.3
2023-01-10T04:30:17.557Z,10.8
2023-01-10T04:35:19.982Z,10.3
2023-01-10T04:40:22.391Z,10.3
2023-01-10T04:45:24.584Z,11
2023-01-10T04:50:27.184Z,10.7
2023-01-10T04:55:29.615Z,11.3
2023-01-10T05:00:32.752Z,11.5
2023-01-10T05:05:35.415Z,23.4
2023-01-10T05:10:38.964Z,13.6
2023-01-10T05:15:41.489Z,16.2
2023-01-10T05:20:43.757Z,12.1
2023-01-10T05:25:46.329Z,11.9
2023-01-10T05:30:49.391Z,12.2
2023-01-10T05:35:51.856Z,11.5
2023-01-10T05:40:54.351Z,15.8
2023-01-10T05:45:56.837Z,12.6
2023-01-10T05:50:59.171Z,11.5
2023-01-10T05:56:01.320Z,11.2
2023-01-10T06:01:03.891Z,12.9
2023-01-10T06:06:06.240Z,13.2
2023-01-10T06:11:08.429Z,12.9
2023-01-10T06:16:11.819Z,12.6
2023-01-10T06:21:14.361Z,13
2023-01-10T06:26:16.530Z,12.3
2023-01-10T06:31:20.385Z,43.8
2023-01-10T06:36:24.978Z,14
2023-01-10T06:41:30.310Z,13.3
2023-01-10T06:46:32.514Z,13
2023-01-10T06:51:34.623Z,13.2
2023-01-10T06:56:37.349Z,12.8
2023-01-10T07:01:39.972Z,13.6
2023-01-10T07:06:42.905Z,14.7
2023-01-10T07:11:45.300Z,13.9
2023-01-10T07:16:47.387Z,14.4
2023-01-10T07:21:49.644Z,20.3
2023-01-10T07:26:51.662Z,15.2
2023-01-10T07:31:54.052Z,14.5
2023-01-10T07:36:56.345Z,14
2023-01-10T07:41:58.773Z,14
2023-01-10T07:47:01.203Z,14.2
2023-01-10T07:52:03.464Z,16.1
2023-01-10T07:57:05.761Z,15.9
2023-01-10T08:02:08.016Z,14.9
2023-01-10T08:07:10.126Z,14.7
2023-01-10T08:12:12.191Z,15.5
2023-01-10T08:17:14.157Z,16.2
2023-01-10T08:22:18.331Z,16.9
2023-01-10T08:27:20.424Z,18.1
2023-01-10T08:32:22.538Z,16.3
2023-01-10T08:37:24.897Z,17.9
2023-01-10T08:42:26.993Z,17
2023-01-10T08:47:29.143Z,17.6
2023-01-10T08:52:31.454Z,16.8
2023-01-10T08:57:33.626Z,16.5
2023-01-10T09:02:35.882Z,17
2023-01-10T09:07:37.499Z,17.1
2023-01-10T09:12:40.194Z,17.2
2023-01-10T09:17:42.164Z,15.8
2023-01-10T09:22:44.451Z,25
2023-01-10T09:27:44.901Z,15.7
2023-01-10T09:32:47.021Z,16.8
2023-01-10T09:37:49.621Z,15.2
2023-01-10T09:42:51.660Z,14.8
2023-01-10T09:47:53.749Z,15.2
2023-01-10T09:52:56.193Z,15.6
2023-01-10T09:57:58.294Z,15.7
2023-01-10T10:03:00.571Z,18.4
2023-01-10T10:08:03.382Z,18.5
2023-01-10T10:13:06.848Z,19.2
2023-01-10T10:18:10.514Z,19.6
2023-01-10T10:23:12.828Z,19.5
2023-01-10T10:28:15.142Z,20
2023-01-10T10:33:17.345Z,19.2
2023-01-10T10:38:19.692Z,19.6
2023-01-10T10:43:22.140Z,18.2
2023-01-10T10:48:30.755Z,17.1
2023-01-10T10:53:32.472Z,16.8
2023-01-10T10:58:38.036Z,15.5
2023-01-10T11:03:40.334Z,15.8
2023-01-10T11:08:43.559Z,16.3
2023-01-10T11:13:46.203Z,14.8
2023-01-10T11:18:50.012Z,15.6
2023-01-10T11:23:55.507Z,16.7
2023-01-10T11:28:59.582Z,16.7
2023-01-10T11:34:02.149Z,17.7
2023-01-10T11:39:04.930Z,19.2
2023-01-10T11:44:07.129Z,18.3
2023-01-10T11:49:09.930Z,20.4
2023-01-10T11:54:12.367Z,22.1
2023-01-10T11:59:14.499Z,22.1
2023-01-10T12:04:16.802Z,20.2
2023-01-10T12:09:20.478Z,22.7
2023-01-10T12:14:22.748Z,19.5
2023-01-10T12:19:26.235Z,18.9
2023-01-10T12:24:28.501Z,18.7
2023-01-10T12:29:30.981Z,19.7
2023-01-10T12:34:33.639Z,21.3
2023-01-10T12:39:36.348Z,22.9
2023-01-10T12:44:38.762Z,23.6
2023-01-10T12:54:45.680Z,20.6
2023-01-10T12:59:48.660Z,20.6
2023-01-10T13:04:51.344Z,20
2023-01-10T13:09:53.486Z,19.3
2023-01-10T13:14:55.902Z,20.5
2023-01-10T13:19:58.471Z,19.9
2023-01-10T13:25:00.879Z,18.1
2023-01-10T13:30:03.330Z,19.9
2023-01-10T13:35:05.732Z,15.2
2023-01-10T13:40:08.595Z,17.2
2023-01-10T13:45:11.155Z,6.5
2023-01-10T13:50:13.672Z,4.1
2023-01-10T13:55:15.876Z,3.2
2023-01-10T14:00:18.060Z,3.5
2023-01-10T14:05:22.451Z,3.3
2023-01-10T14:10:25.118Z,3.9
2023-01-10T14:15:27.602Z,3.2
2023-01-10T14:20:30.064Z,3.1
2023-01-10T14:25:34.260Z,2.8
2023-01-10T14:30:36.704Z,2.7
2023-01-10T14:35:39.142Z,2.5
2023-01-10T14:40:41.552Z,2.8
2023-01-10T14:45:43.910Z,5.7
2023-01-10T14:50:46.107Z,3
2023-01-10T14:55:48.125Z,2.4
2023-01-10T15:00:50.384Z,2.6
2023-01-10T15:05:52.689Z,3
2023-01-10T15:10:54.855Z,2.2
2023-01-10T15:15:57.395Z,1.9
2023-01-10T15:20:59.558Z,2
2023-01-10T15:26:01.755Z,2
2023-01-10T15:31:04.055Z,8.2
2023-01-10T15:36:11.901Z,2.2
2023-01-10T15:46:17.234Z,2.4
2023-01-10T15:56:22.788Z,2.4
2023-01-10T16:01:29.820Z,2.8
2023-01-10T16:06:32.572Z,2.2
2023-01-10T16:11:34.708Z,2.3
2023-01-10T16:16:37.252Z,6.7
2023-01-10T16:21:39.794Z,2.7
2023-01-10T16:26:42.248Z,3.2
2023-01-10T16:31:44.567Z,2.6
2023-01-10T16:36:47.003Z,3.4
2023-01-10T16:41:49.229Z,2.7
2023-01-10T16:46:51.781Z,2.9
2023-01-10T16:51:54.023Z,2.8
2023-01-10T16:56:57.432Z,2.4
2023-01-10T17:01:59.930Z,2.7
2023-01-10T17:07:02.314Z,4.2
2023-01-10T17:12:04.428Z,4.8
2023-01-10T17:17:06.536Z,2.8
2023-01-10T17:22:08.890Z,3.1
2023-01-10T17:27:11.216Z,2.8
2023-01-10T17:32:13.234Z,2.8
2023-01-10T17:37:15.326Z,3.1
2023-01-10T17:42:19.650Z,3.1
2023-01-10T17:47:22.012Z,2.9
2023-01-10T17:52:24.167Z,3
2023-01-10T17:57:26.180Z,3.3
2023-01-10T18:02:28.535Z,3.6
2023-01-10T18:07:31.555Z,3.3
2023-01-10T18:12:33.742Z,4.1
2023-01-10T18:17:36.009Z,3.7
2023-01-10T18:22:38.284Z,4
2023-01-10T18:27:40.368Z,4.6
2023-01-10T18:32:42.725Z,4.2
2023-01-10T18:37:45.437Z,4.6
2023-01-10T18:42:47.047Z,5.2
2023-01-10T18:48:02.248Z,5.5
2023-01-10T18:58:03.140Z,5.2
2023-01-10T19:03:11.125Z,5.1
2023-01-10T19:08:13.870Z,4.9
2023-01-10T19:13:19.314Z,4.6
2023-01-10T19:18:21.958Z,4.2
2023-01-10T19:23:24.316Z,4.2
2023-01-10T19:28:28.686Z,4.2
2023-01-10T19:33:41.399Z,3.6
2023-01-10T19:38:38.064Z,3.6
2023-01-10T19:43:47.348Z,3.4
2023-01-10T19:48:49.908Z,3.5
2023-01-10T19:58:54.263Z,3.6
2023-01-10T20:03:57.112Z,3.4
2023-01-10T20:08:59.398Z,3.3
2023-01-10T20:14:01.432Z,3.2
2023-01-10T20:19:03.380Z,2.8
2023-01-10T20:24:05.450Z,3.1
2023-01-10T20:29:07.543Z,2.9
2023-01-10T20:34:09.803Z,2.6
2023-01-10T20:39:11.969Z,3.8
2023-01-10T20:44:16.799Z,2.5
2023-01-10T20:49:19.280Z,2.8
2023-01-10T20:54:24.196Z,3.1
2023-01-10T20:59:27.106Z,3.1
2023-01-10T21:04:29.494Z,2.7
2023-01-10T21:09:32.034Z,2.4
2023-01-10T21:14:34.400Z,4
2023-01-10T21:19:36.572Z,2.6
2023-01-10T21:24:38.902Z,2.7
2023-01-10T21:29:41.048Z,2.3
2023-01-10T21:34:44.558Z,2.6
2023-01-10T21:39:46.811Z,2.4
2023-01-10T21:44:48.944Z,2.4
2023-01-10T21:49:51.211Z,2.4
2023-01-10T21:54:53.613Z,2.3
2023-01-10T21:59:55.878Z,2.5
2023-01-10T22:04:57.890Z,2.4
2023-01-10T22:10:00.327Z,2.2
2023-01-10T22:15:07.524Z,2.5
2023-01-10T22:20:09.673Z,2.6
2023-01-10T22:25:11.686Z,2.7
2023-01-10T22:30:13.874Z,2.5
2023-01-10T22:35:15.947Z,2.8
2023-01-10T22:40:19.304Z,3
2023-01-10T22:45:21.544Z,4.6
2023-01-10T22:50:23.586Z,4.1
2023-01-10T22:55:25.871Z,3.3
2023-01-10T23:00:27.859Z,4.6
2023-01-10T23:05:30.141Z,3.5
2023-01-10T23:10:32.327Z,3.3
2023-01-10T23:15:34.609Z,3.4
2023-01-10T23:20:37.177Z,3.7
2023-01-10T23:25:39.653Z,3.8
2023-01-10T23:30:41.850Z,4
2023-01-10T23:35:43.962Z,3.9
2023-01-10T23:40:46.384Z,3.7
2023-01-10T23:45:49.097Z,3.7
2023-01-10T23:50:51.659Z,3.5
2023-01-10T23:55:53.802Z,3.4
